createdAt,value
2022-09-05T00:00:04.107Z,954.57
2022-09-05T00:02:48.776Z,190.23
2022-09-05T00:05:36.403Z,173.63
2022-09-05T00:08:16.425Z,790.40
2022-09-05T00:11:40.626Z,982.90
2022-09-05T00:13:40.019Z,693.97
2022-09-05T00:16:32.218Z,970.97
2022-09-05T00:24:22.491Z,968.30
2022-09-05T00:24:29.055Z,959.57
2022-09-05T00:25:38.543Z,995.27
2022-09-05T00:28:25.837Z,999.90
2022-09-05T00:31:55.646Z,979.23
2022-09-05T00:34:22.260Z,251.23
2022-09-05T00:36:53.671Z,380.40
2022-09-05T00:39:24.021Z,999.90
2022-09-05T00:41:53.419Z,999.90
2022-09-05T00:44:24.537Z,995.57
2022-09-05T00:46:57.979Z,999.90
2022-09-05T00:49:30.191Z,999.90
2022-09-05T00:52:02.050Z,998.60
2022-09-05T00:54:57.042Z,999.90
2022-09-05T00:57:40.323Z,998.40
2022-09-05T01:00:17.596Z,124.63
2022-09-05T01:03:26.636Z,999.63
2022-09-05T01:06:17.571Z,999.90
2022-09-05T01:09:09.255Z,127.17
2022-09-05T01:11:54.061Z,969.43
2022-09-05T01:14:32.102Z,975.73
2022-09-05T01:17:09.871Z,999.90
2022-09-05T01:19:52.188Z,988.87
2022-09-05T01:22:40.058Z,999.90
2022-09-05T01:25:16.456Z,609.90
2022-09-05T01:29:16.717Z,131.63
2022-09-05T01:30:42.980Z,125.73
2022-09-05T01:33:20.920Z,999.90
2022-09-05T01:36:22.654Z,999.90
2022-09-05T01:39:45.524Z,996.30
2022-09-05T01:41:53.290Z,999.90
2022-09-05T01:44:31.798Z,999.90
2022-09-05T01:47:10.543Z,999.90
2022-09-05T01:49:47.390Z,999.90
2022-09-05T01:52:26.023Z,999.90
2022-09-05T01:55:07.544Z,999.90
2022-09-05T01:57:41.348Z,999.90
2022-09-05T02:00:13.410Z,999.90
2022-09-05T02:02:53.122Z,999.90
2022-09-05T02:05:48.942Z,995.83
2022-09-05T02:08:47.899Z,999.90
2022-09-05T02:11:36.166Z,999.90
2022-09-05T02:14:09.449Z,999.90
2022-09-05T02:16:44.720Z,999.90
2022-09-05T02:19:18.005Z,999.90
2022-09-05T02:21:55.674Z,993.40
2022-09-05T02:24:28.313Z,999.90
2022-09-05T02:27:07.426Z,999.90
2022-09-05T02:29:42.870Z,999.90
2022-09-05T02:32:14.826Z,999.90
2022-09-05T02:34:53.713Z,999.90
2022-09-05T02:38:31.701Z,999.90
2022-09-05T02:45:01.505Z,999.90
2022-09-05T02:45:20.115Z,539.93
2022-09-05T02:46:05.651Z,999.90
2022-09-05T02:48:48.549Z,999.90
2022-09-05T02:57:26.459Z,997.23
2022-09-05T02:57:27.378Z,880.30
2022-09-05T02:57:40.449Z,999.90
2022-09-05T03:00:07.724Z,577.23
2022-09-05T03:02:43.921Z,999.90
2022-09-05T03:05:19.003Z,999.90
2022-09-05T03:08:08.717Z,999.90
2022-09-05T03:11:05.318Z,999.90
2022-09-05T03:14:12.406Z,993.37
2022-09-05T03:17:25.634Z,999.90
2022-09-05T03:20:16.718Z,986.70
2022-09-05T03:23:09.575Z,999.90
2022-09-05T03:26:05.179Z,999.90
2022-09-05T03:29:17.722Z,999.90
2022-09-05T03:32:17.738Z,995.23
2022-09-05T03:34:56.807Z,999.90
2022-09-05T03:37:49.116Z,999.90
2022-09-05T03:40:37.250Z,999.90
2022-09-05T03:43:25.843Z,999.90
2022-09-05T03:46:03.918Z,999.90
2022-09-05T03:52:13.126Z,999.90
2022-09-05T03:57:11.960Z,999.90
2022-09-05T03:57:13.047Z,999.90
2022-09-05T03:58:55.322Z,999.90
2022-09-05T04:02:37.359Z,999.90
2022-09-05T04:08:17.039Z,999.90
2022-09-05T04:08:20.442Z,999.90
2022-09-05T04:09:53.231Z,999.90
2022-09-05T04:12:25.228Z,999.90
2022-09-05T04:14:56.422Z,999.90
2022-09-05T04:17:31.134Z,999.90
2022-09-05T04:20:02.709Z,999.90
2022-09-05T04:22:39.628Z,999.90
2022-09-05T04:25:13.431Z,48.10
2022-09-05T04:27:50.250Z,45.47
2022-09-05T04:30:38.150Z,44.27
2022-09-05T04:33:16.255Z,23.23
2022-09-05T04:35:53.866Z,54.83
2022-09-05T04:38:37.878Z,132.63
2022-09-05T04:41:09.661Z,54.10
2022-09-05T04:43:41.653Z,105.77
2022-09-05T04:46:18.839Z,102.97
2022-09-05T04:48:52.306Z,202.97
2022-09-05T04:51:44.161Z,230.00
2022-09-05T04:54:27.630Z,76.50
2022-09-05T04:57:13.624Z,115.57
2022-09-05T05:02:38.109Z,241.10
2022-09-05T05:06:11.231Z,106.97
2022-09-05T05:06:13.497Z,143.47
2022-09-05T05:08:31.716Z,132.73
2022-09-05T05:17:55.226Z,380.93
2022-09-05T05:17:58.767Z,54.67
2022-09-05T05:18:08.797Z,61.00
2022-09-05T05:19:57.894Z,251.40
2022-09-05T05:22:34.111Z,323.00
2022-09-05T05:25:01.952Z,304.73
2022-09-05T05:27:35.431Z,293.73
2022-09-05T05:30:05.429Z,324.73
2022-09-05T05:32:45.691Z,266.83
2022-09-05T05:35:16.057Z,295.87
2022-09-05T05:37:46.639Z,368.37
2022-09-05T05:40:21.245Z,300.53
2022-09-05T05:42:49.017Z,404.23
2022-09-05T05:45:18.519Z,359.80
2022-09-05T05:47:50.468Z,393.13
2022-09-05T05:50:33.116Z,397.40
2022-09-05T05:53:28.994Z,318.73
2022-09-05T05:56:29.099Z,376.07
2022-09-05T05:59:06.498Z,395.03
2022-09-05T06:02:02.201Z,513.00
2022-09-05T06:04:49.259Z,534.67
2022-09-05T06:07:23.822Z,477.47
2022-09-05T06:14:52.690Z,437.20
2022-09-05T06:15:00.312Z,482.30
2022-09-05T06:16:41.247Z,436.87
2022-09-05T06:19:46.994Z,509.63
2022-09-05T06:22:44.082Z,448.37
2022-09-05T06:25:47.111Z,361.33
2022-09-05T06:28:22.134Z,405.43
2022-09-05T06:31:29.252Z,110.33
2022-09-05T06:33:53.111Z,358.03
2022-09-05T06:36:43.846Z,538.77
2022-09-05T06:39:17.540Z,534.37
2022-09-05T06:41:58.140Z,539.87
2022-09-05T06:44:42.439Z,543.23
2022-09-05T06:47:23.032Z,391.50
2022-09-05T06:50:24.107Z,104.87
2022-09-05T06:53:35.318Z,522.33
2022-09-05T06:56:12.719Z,107.33
2022-09-05T06:59:34.275Z,159.27
2022-09-05T07:02:08.499Z,534.37
2022-09-05T07:05:23.702Z,533.30
2022-09-05T07:07:35.723Z,585.10
2022-09-05T07:10:34.635Z,624.77
2022-09-05T07:13:00.440Z,557.77
2022-09-05T07:15:37.030Z,625.67
2022-09-05T07:18:13.536Z,472.43
2022-09-05T07:21:16.471Z,116.53
2022-09-05T07:24:09.021Z,603.57
2022-09-05T07:26:53.601Z,541.67
2022-09-05T07:29:29.552Z,577.57
2022-09-05T07:31:58.330Z,629.60
2022-09-05T07:34:28.379Z,637.03
2022-09-05T07:37:14.646Z,644.77
2022-09-05T07:39:46.482Z,205.10
2022-09-05T07:42:17.780Z,703.27
2022-09-05T07:44:50.153Z,120.10
2022-09-05T07:47:22.139Z,695.70
2022-09-05T07:50:13.937Z,134.90
2022-09-05T07:56:53.303Z,269.37
2022-09-05T07:56:59.518Z,129.63
2022-09-05T07:58:21.304Z,710.60
2022-09-05T08:00:54.505Z,724.93
2022-09-05T08:03:26.582Z,135.03
2022-09-05T08:05:55.413Z,139.73
2022-09-05T08:08:25.580Z,782.67
2022-09-05T08:11:24.317Z,627.90
2022-09-05T08:13:53.403Z,237.33
2022-09-05T08:16:34.795Z,726.10
2022-09-05T08:19:12.483Z,167.13
2022-09-05T08:21:43.851Z,765.70
2022-09-05T08:24:14.447Z,756.53
2022-09-05T08:26:47.051Z,789.40
2022-09-05T08:29:26.742Z,731.43
2022-09-05T08:31:58.034Z,840.40
2022-09-05T08:34:44.903Z,760.53
2022-09-05T08:37:15.167Z,772.53
2022-09-05T08:39:50.490Z,772.30
2022-09-05T08:42:49.349Z,804.63
2022-09-05T08:46:44.897Z,740.60
2022-09-05T08:48:39.878Z,719.87
2022-09-05T08:51:25.772Z,789.53
2022-09-05T08:54:08.827Z,696.07
2022-09-05T08:56:41.013Z,734.03
2022-09-05T08:59:31.667Z,133.37
2022-09-05T09:02:47.356Z,160.80
2022-09-05T09:05:14.185Z,377.33
2022-09-05T09:07:51.297Z,340.50
2022-09-05T09:10:40.351Z,134.37
2022-09-05T09:13:20.102Z,148.20
2022-09-05T09:15:53.028Z,624.50
2022-09-05T09:18:21.319Z,181.00
2022-09-05T09:20:53.803Z,390.10
2022-09-05T09:23:41.672Z,157.93
2022-09-05T09:26:15.748Z,378.40
2022-09-05T09:28:51.719Z,155.43
2022-09-05T09:31:37.100Z,478.80
2022-09-05T09:34:18.238Z,140.60
2022-09-05T09:37:15.248Z,903.97
2022-09-05T09:40:02.499Z,960.13
2022-09-05T09:42:34.315Z,884.37
2022-09-05T09:45:29.043Z,459.37
2022-09-05T09:48:34.743Z,159.23
2022-09-05T09:51:15.016Z,963.10
2022-09-05T09:53:53.090Z,309.97
2022-09-05T09:56:55.778Z,376.60
2022-09-05T09:59:30.925Z,908.57
2022-09-05T10:03:37.675Z,959.00
2022-09-05T10:10:35.371Z,163.67
2022-09-05T10:10:55.201Z,779.20
2022-09-05T10:14:49.519Z,148.80
2022-09-05T10:17:33.640Z,151.93
2022-09-05T10:20:29.495Z,674.00
2022-09-05T10:23:11.076Z,974.67
2022-09-05T10:25:58.249Z,961.53
2022-09-05T10:28:38.616Z,952.53
2022-09-05T10:33:05.262Z,980.17
2022-09-05T10:35:17.910Z,958.80
2022-09-05T10:37:02.625Z,963.07
2022-09-05T10:39:31.454Z,931.87
2022-09-05T10:42:03.612Z,883.90
2022-09-05T10:44:38.829Z,379.63
2022-09-05T10:47:16.688Z,940.83
2022-09-05T10:49:45.532Z,420.83
2022-09-05T10:52:18.115Z,208.77
2022-09-05T10:55:15.209Z,889.90
2022-09-05T10:57:54.285Z,972.30
2022-09-05T11:02:20.101Z,977.63
2022-09-05T11:03:50.180Z,956.93
2022-09-05T11:06:25.141Z,942.30
2022-09-05T11:09:00.653Z,976.30
2022-09-05T11:11:34.695Z,975.97
2022-09-05T11:14:07.196Z,965.77
2022-09-05T11:16:50.666Z,968.17
2022-09-05T11:19:20.115Z,962.40
2022-09-05T11:22:10.308Z,212.33
2022-09-05T11:24:49.508Z,234.10
2022-09-05T11:27:27.004Z,213.70
2022-09-05T11:29:57.367Z,409.00
2022-09-05T11:39:38.118Z,230.07
2022-09-05T11:39:51.484Z,234.17
2022-09-05T11:39:53.052Z,246.50
2022-09-05T11:42:10.027Z,240.53
2022-09-05T11:44:44.944Z,245.10
2022-09-05T11:48:00.900Z,254.97
2022-09-05T11:50:47.924Z,811.87
2022-09-05T11:53:44.643Z,246.03
2022-09-05T11:56:45.488Z,231.53
2022-09-05T11:59:45.005Z,954.17
2022-09-05T12:02:43.603Z,264.37
2022-09-05T12:08:26.227Z,935.03
2022-09-05T12:11:05.371Z,965.60
2022-09-05T12:13:42.450Z,971.80
2022-09-05T12:19:22.978Z,920.87
2022-09-05T12:22:24.010Z,908.67
2022-09-05T12:25:27.525Z,927.57
2022-09-05T12:29:09.759Z,261.97
2022-09-05T12:31:07.280Z,945.97
2022-09-05T12:36:05.165Z,962.20
2022-09-05T12:40:56.856Z,955.13
2022-09-05T12:41:37.137Z,971.83
2022-09-05T12:41:41.218Z,915.40
2022-09-05T12:42:08.440Z,979.27
2022-09-05T12:42:28.170Z,971.63
2022-09-05T12:45:10.253Z,985.53
2022-09-05T12:47:55.446Z,973.87
2022-09-05T12:50:33.406Z,967.67
2022-09-05T12:53:06.747Z,972.90
2022-09-05T12:55:37.367Z,972.63
2022-09-05T13:02:58.813Z,949.37
2022-09-05T13:03:01.347Z,840.87
2022-09-05T13:04:20.106Z,968.20
2022-09-05T13:06:54.823Z,899.67
2022-09-05T13:09:30.789Z,960.47
2022-09-05T13:14:56.092Z,938.73
2022-09-05T13:15:20.120Z,956.67
2022-09-05T13:17:54.219Z,960.80
2022-09-05T13:20:34.098Z,959.43
2022-09-05T13:23:05.495Z,959.57
2022-09-05T13:25:36.091Z,964.23
2022-09-05T13:28:06.303Z,957.67
2022-09-05T13:35:42.204Z,958.47
2022-09-05T13:38:19.616Z,924.97
2022-09-05T13:38:30.571Z,934.33
2022-09-05T13:39:11.100Z,906.33
2022-09-05T13:41:45.088Z,910.07
2022-09-05T13:44:26.495Z,898.73
2022-09-05T13:47:02.067Z,943.40
2022-09-05T13:49:40.383Z,947.17
2022-09-05T13:52:20.699Z,955.57
2022-09-05T13:54:51.723Z,942.67
2022-09-05T13:57:37.869Z,949.77
2022-09-05T14:00:44.979Z,928.80
2022-09-05T14:03:43.910Z,885.90
2022-09-05T14:06:45.592Z,906.57
2022-09-05T14:09:40.103Z,894.87
2022-09-05T14:12:12.564Z,917.20
2022-09-05T14:17:51.894Z,922.83
2022-09-05T14:20:43.027Z,928.57
2022-09-05T14:23:13.396Z,927.13
2022-09-05T14:25:44.163Z,963.63
2022-09-05T14:28:14.119Z,947.57
2022-09-05T14:33:21.172Z,964.00
2022-09-05T14:37:40.123Z,952.93
2022-09-05T14:38:07.914Z,940.20
2022-09-05T14:41:16.866Z,278.93
2022-09-05T14:44:17.423Z,254.57
2022-09-05T14:47:02.625Z,234.80
2022-09-05T14:50:04.151Z,253.93
2022-09-05T14:52:35.513Z,287.17
2022-09-05T15:02:49.947Z,913.67
2022-09-05T15:02:56.426Z,904.70
2022-09-05T15:06:32.995Z,816.90
2022-09-05T15:12:14.425Z,900.87
2022-09-05T15:12:25.815Z,919.57
2022-09-05T15:14:42.093Z,902.93
2022-09-05T15:17:09.758Z,906.07
2022-09-05T15:20:06.689Z,892.13
2022-09-05T15:22:37.311Z,893.10
2022-09-05T15:25:17.888Z,907.87
2022-09-05T15:27:48.108Z,952.90
2022-09-05T15:30:21.450Z,956.23
2022-09-05T15:32:50.777Z,904.07
2022-09-05T15:35:42.959Z,871.80
2022-09-05T15:38:56.289Z,857.57
2022-09-05T15:41:35.646Z,876.43
2022-09-05T15:44:28.389Z,907.03
2022-09-05T15:47:02.085Z,907.17
2022-09-05T15:49:38.450Z,869.67
2022-09-05T15:52:12.693Z,882.07
2022-09-05T15:54:51.207Z,919.90
2022-09-05T15:57:25.480Z,904.03
2022-09-05T16:00:04.690Z,904.13
2022-09-05T16:02:39.021Z,871.63
2022-09-05T16:10:26.668Z,932.83
2022-09-05T16:10:36.595Z,906.07
2022-09-05T16:12:17.118Z,921.53
2022-09-05T16:16:40.419Z,887.93
2022-09-05T16:23:14.637Z,879.67
2022-09-05T16:23:32.670Z,894.60
2022-09-05T16:23:59.316Z,954.90
2022-09-05T16:26:44.129Z,969.67
2022-09-05T16:29:25.923Z,954.53
2022-09-05T16:32:37.447Z,937.80
2022-09-05T16:35:26.341Z,899.03
2022-09-05T16:38:01.593Z,224.30
2022-09-05T16:40:41.276Z,216.70
2022-09-05T16:43:19.102Z,193.10
2022-09-05T16:45:51.134Z,968.93
2022-09-05T16:48:37.804Z,965.37
2022-09-05T16:51:15.756Z,964.93
2022-09-05T16:53:50.814Z,976.70
2022-09-05T16:56:29.965Z,964.17
2022-09-05T16:58:59.751Z,980.73
2022-09-05T17:01:54.738Z,961.33
2022-09-05T17:05:03.113Z,260.10
2022-09-05T17:07:42.579Z,264.57
2022-09-05T17:10:12.255Z,712.87
2022-09-05T17:12:40.451Z,971.93
2022-09-05T17:15:11.500Z,963.00
2022-09-05T17:18:19.152Z,251.03
2022-09-05T17:20:48.265Z,946.07
2022-09-05T17:26:36.979Z,232.67
2022-09-05T17:29:31.062Z,229.93
2022-09-05T17:29:36.091Z,205.87
2022-09-05T17:31:58.430Z,439.27
2022-09-05T17:34:50.285Z,246.60
2022-09-05T17:37:34.260Z,225.40
2022-09-05T17:40:41.824Z,975.10
2022-09-05T17:43:28.411Z,986.07
2022-09-05T17:46:09.473Z,964.90
2022-09-05T17:49:18.469Z,972.43
2022-09-05T17:52:23.867Z,938.10
2022-09-05T17:54:53.636Z,824.90
2022-09-05T17:57:45.076Z,259.00
2022-09-05T18:00:49.358Z,171.90
2022-09-05T18:04:08.379Z,643.00
2022-09-05T18:06:54.063Z,957.83
2022-09-05T18:09:59.047Z,374.23
2022-09-05T18:13:13.802Z,967.70
2022-09-05T18:16:04.632Z,971.47
2022-09-05T18:19:28.051Z,932.83
2022-09-05T18:21:25.587Z,982.53
2022-09-05T18:24:00.555Z,963.73
2022-09-05T18:26:29.330Z,186.07
2022-09-05T18:29:05.973Z,194.00
2022-09-05T18:31:59.162Z,964.63
2022-09-05T18:34:44.871Z,158.70
2022-09-05T18:37:50.999Z,229.20
2022-09-05T18:40:39.044Z,188.47
2022-09-05T18:43:13.316Z,948.73
2022-09-05T18:45:52.419Z,979.07
2022-09-05T18:48:29.836Z,972.57
2022-09-05T18:51:15.116Z,991.13
2022-09-05T18:53:47.459Z,993.03
2022-09-05T18:56:22.975Z,949.13
2022-09-05T18:59:01.524Z,975.80
2022-09-05T19:01:43.510Z,999.90
2022-09-05T19:04:17.598Z,989.23
2022-09-05T19:07:09.189Z,999.90
2022-09-05T19:09:37.995Z,999.90
2022-09-05T19:12:33.356Z,999.90
2022-09-05T19:14:56.342Z,983.67
2022-09-05T19:17:32.671Z,986.67
2022-09-05T19:20:31.934Z,987.57
2022-09-05T19:23:09.970Z,999.90
2022-09-05T19:25:41.684Z,989.30
2022-09-05T19:36:44.052Z,999.90
2022-09-05T19:36:50.762Z,986.13
2022-09-05T19:36:54.776Z,990.77
2022-09-05T19:37:13.586Z,999.90
2022-09-05T19:43:01.194Z,246.20
2022-09-05T19:47:34.959Z,167.10
2022-09-05T19:47:42.609Z,983.13
2022-09-05T19:48:07.594Z,971.30
2022-09-05T19:50:37.354Z,999.90
2022-09-05T19:53:07.004Z,990.10
2022-09-05T19:55:36.779Z,999.00
2022-09-05T19:58:19.715Z,983.27
2022-09-05T20:01:00.426Z,999.90
2022-09-05T20:03:38.335Z,998.20
2022-09-05T20:06:15.538Z,988.67
2022-09-05T20:09:09.241Z,999.90
2022-09-05T20:11:45.273Z,999.90
2022-09-05T20:14:23.050Z,999.90
2022-09-05T20:16:52.422Z,999.90
2022-09-05T20:19:28.522Z,258.90
2022-09-05T20:21:59.766Z,999.90
2022-09-05T20:24:47.786Z,999.90
2022-09-05T20:27:17.003Z,84.03
2022-09-05T20:29:55.567Z,253.60
2022-09-05T20:32:39.291Z,158.73
2022-09-05T20:36:40.154Z,129.07
2022-09-05T20:43:15.894Z,302.73
2022-09-05T20:43:19.941Z,280.60
2022-09-05T20:43:57.573Z,277.57
2022-09-05T20:51:29.510Z,133.30
2022-09-05T20:54:04.876Z,139.43
2022-09-05T20:54:19.064Z,137.03
2022-09-05T20:55:09.278Z,363.57
2022-09-05T20:57:47.917Z,124.83
2022-09-05T21:00:17.736Z,127.40
2022-09-05T21:02:55.824Z,484.63
2022-09-05T21:05:29.782Z,503.07
2022-09-05T21:08:23.189Z,482.90
2022-09-05T21:10:55.890Z,243.37
2022-09-05T21:13:27.299Z,316.07
2022-09-05T21:15:55.512Z,129.83
2022-09-05T21:18:28.640Z,474.97
2022-09-05T21:21:06.880Z,506.07
2022-09-05T21:24:00.914Z,510.77
2022-09-05T21:26:47.015Z,478.07
2022-09-05T21:29:16.406Z,501.00
2022-09-05T21:31:46.218Z,499.17
2022-09-05T21:34:23.682Z,492.43
2022-09-05T21:37:03.921Z,125.40
2022-09-05T21:39:38.087Z,127.20
2022-09-05T21:42:39.133Z,127.37
2022-09-05T21:47:39.162Z,129.43
2022-09-05T21:47:53.054Z,145.83
2022-09-05T21:50:30.761Z,128.90
2022-09-05T21:53:21.496Z,133.83
2022-09-05T21:59:17.321Z,615.33
2022-09-05T21:59:18.469Z,132.40
2022-09-05T22:01:50.977Z,570.33
2022-09-05T22:04:16.674Z,566.20
2022-09-05T22:06:48.404Z,402.97
2022-09-05T22:09:17.075Z,129.50
2022-09-05T22:11:50.017Z,128.77
2022-09-05T22:14:19.383Z,135.27
2022-09-05T22:16:47.612Z,145.67
2022-09-05T22:19:17.718Z,133.07
2022-09-05T22:21:45.457Z,209.80
2022-09-05T22:24:13.723Z,132.33
2022-09-05T22:27:01.514Z,600.57
2022-09-05T22:29:34.489Z,795.17
2022-09-05T22:32:02.186Z,729.47
2022-09-05T22:34:29.860Z,123.77
2022-09-05T22:36:57.506Z,163.03
2022-09-05T22:39:36.525Z,618.60
2022-09-05T22:42:07.580Z,663.13
2022-09-05T22:44:40.613Z,612.07
2022-09-05T22:47:08.907Z,668.30
2022-09-05T22:49:37.274Z,697.03
2022-09-05T22:52:05.847Z,675.13
2022-09-05T22:54:33.512Z,692.20
2022-09-05T22:57:01.106Z,649.60
2022-09-05T22:59:28.772Z,647.13
2022-09-05T23:01:57.738Z,128.77
2022-09-05T23:04:25.727Z,643.53
2022-09-05T23:06:53.552Z,172.90
2022-09-05T23:09:21.242Z,739.77
2022-09-05T23:11:48.957Z,673.63
2022-09-05T23:14:16.585Z,717.47
2022-09-05T23:16:44.168Z,688.10
2022-09-05T23:19:13.111Z,712.30
2022-09-05T23:21:40.824Z,121.10
2022-09-05T23:24:08.515Z,685.43
2022-09-05T23:26:36.090Z,513.93
2022-09-05T23:29:03.707Z,137.00
2022-09-05T23:31:31.451Z,444.23
2022-09-05T23:33:59.103Z,695.23
2022-09-05T23:36:28.387Z,686.93
2022-09-05T23:38:56.119Z,678.30
2022-09-05T23:41:23.740Z,114.30
2022-09-05T23:43:51.330Z,617.50
2022-09-05T23:46:18.993Z,688.57
2022-09-05T23:48:46.615Z,699.17
2022-09-05T23:51:14.600Z,701.23
2022-09-05T23:53:43.710Z,728.87
2022-09-05T23:56:12.166Z,710.67
2022-09-05T23:58:39.784Z,755.37
